sensor_id;sensor_type;location;lat;lon;timestamp;P1;durP1;ratioP1;P2;durP2;ratioP2
29218;SDS011;16421;50.202;7.852;2022-09-21T00:00:37;1.60;;;1.02;;
29218;SDS011;16421;50.202;7.852;2022-09-21T00:05:41;0.98;;;0.88;;
29218;SDS011;16421;50.202;7.852;2022-09-21T00:10:48;1.65;;;0.93;;
29218;SDS011;16421;50.202;7.852;2022-09-21T00:15:53;1.70;;;1.20;;
29218;SDS011;16421;50.202;7.852;2022-09-21T00:20:56;3.65;;;1.00;;
29218;SDS011;16421;50.202;7.852;2022-09-21T00:26:03;2.10;;;1.25;;
29218;SDS011;16421;50.202;7.852;2022-09-21T00:31:10;0.90;;;0.90;;
29218;SDS011;16421;50.202;7.852;2022-09-21T00:36:15;1.40;;;0.90;;
29218;SDS011;16421;50.202;7.852;2022-09-21T00:41:24;2.15;;;0.90;;
29218;SDS011;16421;50.202;7.852;2022-09-21T00:46:29;2.50;;;0.82;;
29218;SDS011;16421;50.202;7.852;2022-09-21T00:51:33;1.02;;;0.90;;
29218;SDS011;16421;50.202;7.852;2022-09-21T00:56:37;3.22;;;1.20;;
29218;SDS011;16421;50.202;7.852;2022-09-21T01:01:42;1.67;;;1.15;;
29218;SDS011;16421;50.202;7.852;2022-09-21T01:06:46;1.40;;;1.25;;
29218;SDS011;16421;50.202;7.852;2022-09-21T01:11:53;2.42;;;1.40;;
29218;SDS011;16421;50.202;7.852;2022-09-21T01:17:08;1.60;;;1.05;;
29218;SDS011;16421;50.202;7.852;2022-09-21T01:22:49;1.90;;;1.08;;
29218;SDS011;16421;50.202;7.852;2022-09-21T01:28:06;2.00;;;1.02;;
29218;SDS011;16421;50.202;7.852;2022-09-21T01:33:20;1.15;;;0.95;;
29218;SDS011;16421;50.202;7.852;2022-09-21T01:38:30;3.33;;;0.93;;
29218;SDS011;16421;50.202;7.852;2022-09-21T01:43:39;2.03;;;1.00;;
29218;SDS011;16421;50.202;7.852;2022-09-21T01:48:49;1.10;;;0.80;;
29218;SDS011;16421;50.202;7.852;2022-09-21T01:53:56;1.60;;;1.05;;
29218;SDS011;16421;50.202;7.852;2022-09-21T01:59:05;1.58;;;1.00;;
29218;SDS011;16421;50.202;7.852;2022-09-21T02:04:13;1.25;;;1.05;;
29218;SDS011;16421;50.202;7.852;2022-09-21T02:09:18;1.38;;;0.90;;
29218;SDS011;16421;50.202;7.852;2022-09-21T02:14:22;1.40;;;0.65;;
29218;SDS011;16421;50.202;7.852;2022-09-21T02:19:29;2.30;;;0.88;;
29218;SDS011;16421;50.202;7.852;2022-09-21T02:24:40;0.85;;;0.68;;
29218;SDS011;16421;50.202;7.852;2022-09-21T02:29:46;1.23;;;0.73;;
29218;SDS011;16421;50.202;7.852;2022-09-21T02:34:58;0.73;;;0.73;;
29218;SDS011;16421;50.202;7.852;2022-09-21T02:40:06;3.40;;;0.70;;
29218;SDS011;16421;50.202;7.852;2022-09-21T02:45:18;1.02;;;0.80;;
29218;SDS011;16421;50.202;7.852;2022-09-21T02:50:25;0.70;;;0.70;;
29218;SDS011;16421;50.202;7.852;2022-09-21T02:55:33;0.88;;;0.70;;
29218;SDS011;16421;50.202;7.852;2022-09-21T03:00:38;19.42;;;1.17;;
29218;SDS011;16421;50.202;7.852;2022-09-21T03:05:47;0.98;;;0.60;;
29218;SDS011;16421;50.202;7.852;2022-09-21T03:10:52;1.35;;;0.68;;
29218;SDS011;16421;50.202;7.852;2022-09-21T03:15:59;1.08;;;0.90;;
29218;SDS011;16421;50.202;7.852;2022-09-21T03:21:05;3.80;;;1.08;;
29218;SDS011;16421;50.202;7.852;2022-09-21T03:26:08;1.25;;;0.85;;
29218;SDS011;16421;50.202;7.852;2022-09-21T03:31:12;2.40;;;0.98;;
29218;SDS011;16421;50.202;7.852;2022-09-21T03:36:19;1.80;;;0.80;;
29218;SDS011;16421;50.202;7.852;2022-09-21T03:41:22;1.60;;;0.90;;
29218;SDS011;16421;50.202;7.852;2022-09-21T03:46:25;1.10;;;0.95;;
29218;SDS011;16421;50.202;7.852;2022-09-21T03:51:30;3.60;;;0.80;;
29218;SDS011;16421;50.202;7.852;2022-09-21T03:56:34;1.02;;;0.93;;
29218;SDS011;16421;50.202;7.852;2022-09-21T04:01:37;2.20;;;1.20;;
29218;SDS011;16421;50.202;7.852;2022-09-21T04:06:42;1.77;;;1.00;;
29218;SDS011;16421;50.202;7.852;2022-09-21T04:11:46;1.02;;;1.00;;
29218;SDS011;16421;50.202;7.852;2022-09-21T04:16:54;5.25;;;0.95;;
29218;SDS011;16421;50.202;7.852;2022-09-21T04:21:59;1.30;;;0.80;;
29218;SDS011;16421;50.202;7.852;2022-09-21T04:27:02;4.35;;;1.10;;
29218;SDS011;16421;50.202;7.852;2022-09-21T04:32:06;5.00;;;1.00;;
29218;SDS011;16421;50.202;7.852;2022-09-21T04:37:11;1.05;;;1.00;;
29218;SDS011;16421;50.202;7.852;2022-09-21T04:42:14;1.10;;;1.00;;
29218;SDS011;16421;50.202;7.852;2022-09-21T04:47:17;1.40;;;1.02;;
29218;SDS011;16421;50.202;7.852;2022-09-21T04:52:25;1.67;;;1.42;;
29218;SDS011;16421;50.202;7.852;2022-09-21T04:57:28;1.40;;;1.25;;
29218;SDS011;16421;50.202;7.852;2022-09-21T05:02:31;1.60;;;1.10;;
29218;SDS011;16421;50.202;7.852;2022-09-21T05:07:36;1.88;;;1.55;;
29218;SDS011;16421;50.202;7.852;2022-09-21T05:12:39;3.13;;;1.50;;
29218;SDS011;16421;50.202;7.852;2022-09-21T05:17:43;2.10;;;1.25;;
29218;SDS011;16421;50.202;7.852;2022-09-21T05:22:48;2.92;;;1.30;;
29218;SDS011;16421;50.202;7.852;2022-09-21T05:27:51;1.20;;;1.05;;
29218;SDS011;16421;50.202;7.852;2022-09-21T05:32:55;2.58;;;1.30;;
29218;SDS011;16421;50.202;7.852;2022-09-21T05:38:04;2.03;;;1.20;;
29218;SDS011;16421;50.202;7.852;2022-09-21T05:43:14;3.42;;;1.42;;
29218;SDS011;16421;50.202;7.852;2022-09-21T05:48:18;1.63;;;1.00;;
29218;SDS011;16421;50.202;7.852;2022-09-21T05:53:26;1.27;;;1.17;;
29218;SDS011;16421;50.202;7.852;2022-09-21T05:58:49;1.83;;;1.10;;
29218;SDS011;16421;50.202;7.852;2022-09-21T06:03:59;3.65;;;0.93;;
29218;SDS011;16421;50.202;7.852;2022-09-21T06:09:06;1.10;;;0.90;;
29218;SDS011;16421;50.202;7.852;2022-09-21T06:14:09;1.05;;;0.95;;
29218;SDS011;16421;50.202;7.852;2022-09-21T06:19:12;1.92;;;0.93;;
29218;SDS011;16421;50.202;7.852;2022-09-21T06:24:17;0.80;;;0.80;;
29218;SDS011;16421;50.202;7.852;2022-09-21T06:29:20;0.90;;;0.80;;
29218;SDS011;16421;50.202;7.852;2022-09-21T06:34:24;0.90;;;0.80;;
29218;SDS011;16421;50.202;7.852;2022-09-21T06:39:29;1.30;;;0.90;;
29218;SDS011;16421;50.202;7.852;2022-09-21T06:44:32;0.80;;;0.80;;
29218;SDS011;16421;50.202;7.852;2022-09-21T06:49:35;1.27;;;0.75;;
29218;SDS011;16421;50.202;7.852;2022-09-21T06:54:43;0.82;;;0.82;;
29218;SDS011;16421;50.202;7.852;2022-09-21T06:59:46;2.78;;;1.25;;
29218;SDS011;16421;50.202;7.852;2022-09-21T07:04:49;1.13;;;0.90;;
29218;SDS011;16421;50.202;7.852;2022-09-21T07:09:54;0.50;;;0.50;;
29218;SDS011;16421;50.202;7.852;2022-09-21T07:15:07;0.70;;;0.70;;
29218;SDS011;16421;50.202;7.852;2022-09-21T07:20:12;0.70;;;0.70;;
29218;SDS011;16421;50.202;7.852;2022-09-21T07:25:16;1.17;;;0.65;;
29218;SDS011;16421;50.202;7.852;2022-09-21T07:30:22;0.68;;;0.50;;
29218;SDS011;16421;50.202;7.852;2022-09-21T07:35:27;0.98;;;0.73;;
29218;SDS011;16421;50.202;7.852;2022-09-21T07:40:32;1.05;;;0.80;;
29218;SDS011;16421;50.202;7.852;2022-09-21T07:45:36;1.08;;;1.00;;
29218;SDS011;16421;50.202;7.852;2022-09-21T07:50:39;1.05;;;0.95;;
29218;SDS011;16421;50.202;7.852;2022-09-21T07:55:44;0.82;;;0.70;;
29218;SDS011;16421;50.202;7.852;2022-09-21T08:00:47;1.38;;;0.90;;
29218;SDS011;16421;50.202;7.852;2022-09-21T08:05:51;1.02;;;0.70;;
29218;SDS011;16421;50.202;7.852;2022-09-21T08:10:55;1.70;;;1.58;;
29218;SDS011;16421;50.202;7.852;2022-09-21T08:16:04;3.70;;;1.90;;
29218;SDS011;16421;50.202;7.852;2022-09-21T08:21:08;2.47;;;1.50;;
29218;SDS011;16421;50.202;7.852;2022-09-21T08:26:14;5.20;;;1.73;;
29218;SDS011;16421;50.202;7.852;2022-09-21T08:31:20;1.73;;;1.40;;
29218;SDS011;16421;50.202;7.852;2022-09-21T08:36:25;2.90;;;1.67;;
29218;SDS011;16421;50.202;7.852;2022-09-21T08:41:34;1.60;;;1.50;;
29218;SDS011;16421;50.202;7.852;2022-09-21T08:46:53;1.05;;;0.95;;
29218;SDS011;16421;50.202;7.852;2022-09-21T08:52:04;2.58;;;1.58;;
29218;SDS011;16421;50.202;7.852;2022-09-21T08:57:11;1.58;;;1.40;;
29218;SDS011;16421;50.202;7.852;2022-09-21T09:02:25;4.30;;;1.90;;
29218;SDS011;16421;50.202;7.852;2022-09-21T09:07:47;3.55;;;2.10;;
29218;SDS011;16421;50.202;7.852;2022-09-21T09:13:09;1.77;;;1.67;;
29218;SDS011;16421;50.202;7.852;2022-09-21T09:18:24;2.13;;;1.50;;
29218;SDS011;16421;50.202;7.852;2022-09-21T09:23:36;2.42;;;1.80;;
29218;SDS011;16421;50.202;7.852;2022-09-21T09:28:43;2.28;;;1.50;;
29218;SDS011;16421;50.202;7.852;2022-09-21T09:33:55;1.30;;;1.20;;
29218;SDS011;16421;50.202;7.852;2022-09-21T09:39:03;1.25;;;1.15;;
29218;SDS011;16421;50.202;7.852;2022-09-21T09:44:18;1.30;;;0.95;;
29218;SDS011;16421;50.202;7.852;2022-09-21T09:49:32;0.82;;;0.82;;
29218;SDS011;16421;50.202;7.852;2022-09-21T09:54:43;0.90;;;0.88;;
29218;SDS011;16421;50.202;7.852;2022-09-21T09:59:48;1.40;;;1.15;;
29218;SDS011;16421;50.202;7.852;2022-09-21T10:04:55;2.95;;;2.38;;
29218;SDS011;16421;50.202;7.852;2022-09-21T10:10:21;3.67;;;2.60;;
29218;SDS011;16421;50.202;7.852;2022-09-21T10:15:27;2.53;;;1.42;;
29218;SDS011;16421;50.202;7.852;2022-09-21T10:20:31;2.53;;;2.00;;
29218;SDS011;16421;50.202;7.852;2022-09-21T10:25:34;1.75;;;1.33;;
29218;SDS011;16421;50.202;7.852;2022-09-21T10:30:41;1.50;;;0.98;;
29218;SDS011;16421;50.202;7.852;2022-09-21T10:35:48;1.20;;;1.00;;
29218;SDS011;16421;50.202;7.852;2022-09-21T10:40:52;1.67;;;0.70;;
29218;SDS011;16421;50.202;7.852;2022-09-21T10:45:57;2.22;;;0.50;;
29218;SDS011;16421;50.202;7.852;2022-09-21T10:51:00;0.88;;;0.45;;
29218;SDS011;16421;50.202;7.852;2022-09-21T10:56:05;0.57;;;0.35;;
29218;SDS011;16421;50.202;7.852;2022-09-21T11:01:21;0.82;;;0.30;;
29218;SDS011;16421;50.202;7.852;2022-09-21T11:06:25;0.60;;;0.30;;
29218;SDS011;16421;50.202;7.852;2022-09-21T11:11:36;1.00;;;0.20;;
29218;SDS011;16421;50.202;7.852;2022-09-21T11:22:18;0.10;;;0.10;;
29218;SDS011;16421;50.202;7.852;2022-09-21T11:28:13;0.55;;;0.20;;
29218;SDS011;16421;50.202;7.852;2022-09-21T11:33:29;0.35;;;0.10;;
29218;SDS011;16421;50.202;7.852;2022-09-21T11:38:42;0.40;;;0.20;;
29218;SDS011;16421;50.202;7.852;2022-09-21T11:44:00;0.82;;;0.20;;
29218;SDS011;16421;50.202;7.852;2022-09-21T11:49:20;0.68;;;0.20;;
29218;SDS011;16421;50.202;7.852;2022-09-21T11:54:40;1.17;;;0.20;;
29218;SDS011;16421;50.202;7.852;2022-09-21T12:00:10;0.20;;;0.10;;
29218;SDS011;16421;50.202;7.852;2022-09-21T12:05:21;0.55;;;0.28;;
29218;SDS011;16421;50.202;7.852;2022-09-21T12:10:36;0.30;;;0.10;;
29218;SDS011;16421;50.202;7.852;2022-09-21T12:15:45;1.40;;;0.20;;
29218;SDS011;16421;50.202;7.852;2022-09-21T12:20:54;1.25;;;0.20;;
29218;SDS011;16421;50.202;7.852;2022-09-21T12:26:03;0.63;;;0.30;;
29218;SDS011;16421;50.202;7.852;2022-09-21T12:31:09;0.73;;;0.10;;
29218;SDS011;16421;50.202;7.852;2022-09-21T12:36:19;0.35;;;0.20;;
29218;SDS011;16421;50.202;7.852;2022-09-21T12:41:29;0.20;;;0.10;;
29218;SDS011;16421;50.202;7.852;2022-09-21T12:46:39;0.40;;;0.15;;
29218;SDS011;16421;50.202;7.852;2022-09-21T12:51:50;1.33;;;0.40;;
29218;SDS011;16421;50.202;7.852;2022-09-21T12:57:00;0.80;;;0.20;;
29218;SDS011;16421;50.202;7.852;2022-09-21T13:02:19;1.38;;;0.32;;
29218;SDS011;16421;50.202;7.852;2022-09-21T13:07:31;0.68;;;0.20;;
29218;SDS011;16421;50.202;7.852;2022-09-21T13:18:14;0.22;;;0.10;;
29218;SDS011;16421;50.202;7.852;2022-09-21T13:23:26;0.77;;;0.22;;
29218;SDS011;16421;50.202;7.852;2022-09-21T13:28:40;0.63;;;0.20;;
29218;SDS011;16421;50.202;7.852;2022-09-21T13:34:05;0.30;;;0.20;;
29218;SDS011;16421;50.202;7.852;2022-09-21T13:39:23;0.28;;;0.20;;
29218;SDS011;16421;50.202;7.852;2022-09-21T13:44:38;0.82;;;0.30;;
29218;SDS011;16421;50.202;7.852;2022-09-21T13:49:44;0.45;;;0.20;;
29218;SDS011;16421;50.202;7.852;2022-09-21T13:54:54;0.40;;;0.20;;
29218;SDS011;16421;50.202;7.852;2022-09-21T14:05:38;0.63;;;0.17;;
29218;SDS011;16421;50.202;7.852;2022-09-21T14:10:48;0.32;;;0.25;;
29218;SDS011;16421;50.202;7.852;2022-09-21T14:15:54;0.20;;;0.15;;
29218;SDS011;16421;50.202;7.852;2022-09-21T14:27:30;1.55;;;0.50;;
29218;SDS011;16421;50.202;7.852;2022-09-21T14:32:36;1.30;;;0.20;;
29218;SDS011;16421;50.202;7.852;2022-09-21T14:37:48;0.45;;;0.20;;
29218;SDS011;16421;50.202;7.852;2022-09-21T14:42:55;1.73;;;0.40;;
29218;SDS011;16421;50.202;7.852;2022-09-21T14:48:04;0.40;;;0.20;;
29218;SDS011;16421;50.202;7.852;2022-09-21T14:53:22;2.33;;;0.32;;
29218;SDS011;16421;50.202;7.852;2022-09-21T14:58:39;0.43;;;0.15;;
29218;SDS011;16421;50.202;7.852;2022-09-21T15:03:58;0.30;;;0.20;;
29218;SDS011;16421;50.202;7.852;2022-09-21T15:09:23;5.43;;;0.57;;
29218;SDS011;16421;50.202;7.852;2022-09-21T15:15:01;0.30;;;0.20;;
29218;SDS011;16421;50.202;7.852;2022-09-21T15:20:14;0.20;;;0.20;;
29218;SDS011;16421;50.202;7.852;2022-09-21T15:25:23;1.17;;;0.50;;
29218;SDS011;16421;50.202;7.852;2022-09-21T15:30:30;0.20;;;0.20;;
29218;SDS011;16421;50.202;7.852;2022-09-21T15:35:44;0.15;;;0.15;;
29218;SDS011;16421;50.202;7.852;2022-09-21T15:40:48;0.55;;;0.20;;
29218;SDS011;16421;50.202;7.852;2022-09-21T15:45:54;1.67;;;0.43;;
29218;SDS011;16421;50.202;7.852;2022-09-21T15:51:00;0.20;;;0.15;;
29218;SDS011;16421;50.202;7.852;2022-09-21T15:56:16;0.60;;;0.20;;
29218;SDS011;16421;50.202;7.852;2022-09-21T16:01:22;0.40;;;0.20;;
29218;SDS011;16421;50.202;7.852;2022-09-21T16:06:26;0.20;;;0.10;;
29218;SDS011;16421;50.202;7.852;2022-09-21T16:11:36;2.63;;;0.38;;
29218;SDS011;16421;50.202;7.852;2022-09-21T16:22:23;2.20;;;0.22;;
29218;SDS011;16421;50.202;7.852;2022-09-21T16:27:30;0.90;;;0.28;;
29218;SDS011;16421;50.202;7.852;2022-09-21T16:32:33;0.65;;;0.20;;
29218;SDS011;16421;50.202;7.852;2022-09-21T16:37:41;0.20;;;0.20;;
29218;SDS011;16421;50.202;7.852;2022-09-21T16:42:45;0.47;;;0.10;;
29218;SDS011;16421;50.202;7.852;2022-09-21T16:47:48;0.10;;;0.10;;
29218;SDS011;16421;50.202;7.852;2022-09-21T16:52:55;0.63;;;0.20;;
29218;SDS011;16421;50.202;7.852;2022-09-21T16:57:58;0.35;;;0.20;;
29218;SDS011;16421;50.202;7.852;2022-09-21T17:03:02;0.65;;;0.20;;
29218;SDS011;16421;50.202;7.852;2022-09-21T17:08:07;0.10;;;0.10;;
29218;SDS011;16421;50.202;7.852;2022-09-21T17:13:12;0.40;;;0.20;;
29218;SDS011;16421;50.202;7.852;2022-09-21T17:18:17;0.50;;;0.15;;
29218;SDS011;16421;50.202;7.852;2022-09-21T17:23:21;0.75;;;0.20;;
29218;SDS011;16421;50.202;7.852;2022-09-21T17:28:29;0.65;;;0.20;;
29218;SDS011;16421;50.202;7.852;2022-09-21T17:33:32;1.27;;;0.30;;
29218;SDS011;16421;50.202;7.852;2022-09-21T17:38:37;0.40;;;0.40;;
29218;SDS011;16421;50.202;7.852;2022-09-21T17:43:42;1.85;;;0.82;;
29218;SDS011;16421;50.202;7.852;2022-09-21T17:48:54;1.00;;;0.65;;
29218;SDS011;16421;50.202;7.852;2022-09-21T17:53:59;1.00;;;0.63;;
29218;SDS011;16421;50.202;7.852;2022-09-21T17:59:03;1.90;;;0.60;;
29218;SDS011;16421;50.202;7.852;2022-09-21T18:04:10;1.33;;;0.85;;
29218;SDS011;16421;50.202;7.852;2022-09-21T18:09:15;1.75;;;1.10;;
29218;SDS011;16421;50.202;7.852;2022-09-21T18:14:22;2.80;;;1.80;;
29218;SDS011;16421;50.202;7.852;2022-09-21T18:19:38;0.80;;;0.65;;
29218;SDS011;16421;50.202;7.852;2022-09-21T18:25:05;1.02;;;0.50;;
29218;SDS011;16421;50.202;7.852;2022-09-21T18:30:13;1.02;;;0.80;;
29218;SDS011;16421;50.202;7.852;2022-09-21T18:35:24;2.83;;;1.35;;
29218;SDS011;16421;50.202;7.852;2022-09-21T18:40:41;2.63;;;1.33;;
29218;SDS011;16421;50.202;7.852;2022-09-21T18:45:54;2.15;;;1.20;;
29218;SDS011;16421;50.202;7.852;2022-09-21T18:51:04;2.55;;;1.50;;
29218;SDS011;16421;50.202;7.852;2022-09-21T18:56:15;1.52;;;1.10;;
29218;SDS011;16421;50.202;7.852;2022-09-21T19:01:19;1.63;;;1.30;;
29218;SDS011;16421;50.202;7.852;2022-09-21T19:06:29;2.08;;;1.50;;
29218;SDS011;16421;50.202;7.852;2022-09-21T19:11:42;2.50;;;1.60;;
29218;SDS011;16421;50.202;7.852;2022-09-21T19:16:54;3.58;;;1.40;;
29218;SDS011;16421;50.202;7.852;2022-09-21T19:22:13;2.25;;;1.55;;
29218;SDS011;16421;50.202;7.852;2022-09-21T19:27:27;2.45;;;1.80;;
29218;SDS011;16421;50.202;7.852;2022-09-21T19:32:42;2.88;;;1.98;;
29218;SDS011;16421;50.202;7.852;2022-09-21T19:37:49;3.80;;;1.70;;
29218;SDS011;16421;50.202;7.852;2022-09-21T19:42:57;4.28;;;2.28;;
29218;SDS011;16421;50.202;7.852;2022-09-21T19:48:12;3.03;;;1.60;;
29218;SDS011;16421;50.202;7.852;2022-09-21T19:53:17;2.38;;;1.30;;
29218;SDS011;16421;50.202;7.852;2022-09-21T19:58:40;2.28;;;1.58;;
29218;SDS011;16421;50.202;7.852;2022-09-21T20:04:01;1.98;;;1.67;;
29218;SDS011;16421;50.202;7.852;2022-09-21T20:09:08;3.55;;;2.00;;
29218;SDS011;16421;50.202;7.852;2022-09-21T20:14:23;2.88;;;1.98;;
29218;SDS011;16421;50.202;7.852;2022-09-21T20:19:36;4.13;;;2.13;;
29218;SDS011;16421;50.202;7.852;2022-09-21T20:24:50;3.80;;;2.30;;
29218;SDS011;16421;50.202;7.852;2022-09-21T20:30:00;2.78;;;2.10;;
29218;SDS011;16421;50.202;7.852;2022-09-21T20:35:11;2.58;;;1.50;;
29218;SDS011;16421;50.202;7.852;2022-09-21T20:40:18;1.75;;;1.40;;
29218;SDS011;16421;50.202;7.852;2022-09-21T20:45:26;4.85;;;1.45;;
29218;SDS011;16421;50.202;7.852;2022-09-21T20:50:30;2.20;;;1.15;;
29218;SDS011;16421;50.202;7.852;2022-09-21T20:55:34;4.45;;;2.08;;
29218;SDS011;16421;50.202;7.852;2022-09-21T21:00:38;3.80;;;2.10;;
29218;SDS011;16421;50.202;7.852;2022-09-21T21:05:42;3.80;;;2.17;;
29218;SDS011;16421;50.202;7.852;2022-09-21T21:10:46;4.57;;;2.67;;
29218;SDS011;16421;50.202;7.852;2022-09-21T21:15:52;5.60;;;3.08;;
29218;SDS011;16421;50.202;7.852;2022-09-21T21:26:02;5.38;;;2.78;;
29218;SDS011;16421;50.202;7.852;2022-09-21T21:31:07;5.50;;;2.55;;
29218;SDS011;16421;50.202;7.852;2022-09-21T21:36:12;3.38;;;1.75;;
29218;SDS011;16421;50.202;7.852;2022-09-21T21:41:16;3.03;;;1.80;;
29218;SDS011;16421;50.202;7.852;2022-09-21T21:46:20;2.67;;;1.90;;
29218;SDS011;16421;50.202;7.852;2022-09-21T21:51:26;2.88;;;1.30;;
29218;SDS011;16421;50.202;7.852;2022-09-21T21:56:30;1.77;;;1.27;;
29218;SDS011;16421;50.202;7.852;2022-09-21T22:01:34;2.42;;;1.50;;
29218;SDS011;16421;50.202;7.852;2022-09-21T22:06:39;2.10;;;1.33;;
29218;SDS011;16421;50.202;7.852;2022-09-21T22:11:43;2.35;;;1.48;;
29218;SDS011;16421;50.202;7.852;2022-09-21T22:16:48;2.72;;;1.60;;
29218;SDS011;16421;50.202;7.852;2022-09-21T22:21:51;3.42;;;1.13;;
29218;SDS011;16421;50.202;7.852;2022-09-21T22:26:55;1.85;;;1.20;;
29218;SDS011;16421;50.202;7.852;2022-09-21T22:31:59;1.98;;;1.30;;
29218;SDS011;16421;50.202;7.852;2022-09-21T22:37:03;1.55;;;1.17;;
29218;SDS011;16421;50.202;7.852;2022-09-21T22:42:08;1.67;;;1.20;;
29218;SDS011;16421;50.202;7.852;2022-09-21T22:47:13;2.63;;;1.40;;
29218;SDS011;16421;50.202;7.852;2022-09-21T22:52:17;1.30;;;1.08;;
29218;SDS011;16421;50.202;7.852;2022-09-21T22:57:20;1.52;;;1.10;;
29218;SDS011;16421;50.202;7.852;2022-09-21T23:02:25;0.98;;;0.85;;
29218;SDS011;16421;50.202;7.852;2022-09-21T23:07:29;1.10;;;0.95;;
29218;SDS011;16421;50.202;7.852;2022-09-21T23:12:32;2.17;;;0.95;;
29218;SDS011;16421;50.202;7.852;2022-09-21T23:17:37;1.13;;;1.00;;
29218;SDS011;16421;50.202;7.852;2022-09-21T23:22:40;1.83;;;1.17;;
29218;SDS011;16421;50.202;7.852;2022-09-21T23:27:44;2.08;;;1.33;;
29218;SDS011;16421;50.202;7.852;2022-09-21T23:32:48;1.88;;;1.10;;
29218;SDS011;16421;50.202;7.852;2022-09-21T23:37:53;2.37;;;1.20;;
29218;SDS011;16421;50.202;7.852;2022-09-21T23:42:56;1.85;;;1.17;;
29218;SDS011;16421;50.202;7.852;2022-09-21T23:48:01;1.85;;;1.20;;
29218;SDS011;16421;50.202;7.852;2022-09-21T23:53:04;1.85;;;1.05;;
29218;SDS011;16421;50.202;7.852;2022-09-21T23:58:07;1.75;;;1.25;;
